createdAt,value
2022-12-08T00:01:18.003Z,10.27
2022-12-08T00:03:45.456Z,9.23
2022-12-08T00:06:51.895Z,9.38
2022-12-08T00:09:24.909Z,8.82
2022-12-08T00:11:57.861Z,9.95
2022-12-08T00:14:29.715Z,9.20
2022-12-08T00:16:57.848Z,9.38
2022-12-08T00:19:25.213Z,8.25
2022-12-08T00:21:52.963Z,8.25
2022-12-08T00:24:20.541Z,8.50
2022-12-08T00:26:47.777Z,7.72
2022-12-08T00:29:17.504Z,8.63
2022-12-08T00:31:45.266Z,7.38
2022-12-08T00:34:13.981Z,8.80
2022-12-08T00:40:46.461Z,7.70
2022-12-08T00:43:44.345Z,7.35
2022-12-08T00:46:12.564Z,8.65
2022-12-08T00:48:39.519Z,8.18
2022-12-08T00:51:06.629Z,8.95
2022-12-08T00:53:34.033Z,8.02
2022-12-08T00:56:01.015Z,9.05
2022-12-08T00:58:30.390Z,8.52
2022-12-08T01:00:58.741Z,8.60
2022-12-08T01:03:26.463Z,7.88
2022-12-08T01:05:54.330Z,8.00
2022-12-08T01:08:21.400Z,9.68
2022-12-08T01:10:48.528Z,8.70
2022-12-08T01:13:15.650Z,9.07
2022-12-08T01:15:43.314Z,9.35
2022-12-08T01:18:10.488Z,8.70
2022-12-08T01:20:39.570Z,7.70
2022-12-08T01:23:07.436Z,8.70
2022-12-08T01:25:35.191Z,8.10
2022-12-08T01:28:02.214Z,7.82
2022-12-08T01:30:29.555Z,8.32
2022-12-08T01:32:56.837Z,8.57
2022-12-08T01:35:23.768Z,8.05
2022-12-08T01:47:18.679Z,7.70
2022-12-08T01:49:48.568Z,7.95
2022-12-08T01:52:23.436Z,8.73
2022-12-08T01:55:12.235Z,8.02
2022-12-08T01:57:45.363Z,8.80
2022-12-08T02:00:15.849Z,7.50
2022-12-08T02:02:58.922Z,8.55
2022-12-08T02:05:27.850Z,8.88
2022-12-08T02:07:55.065Z,8.63
2022-12-08T02:10:23.196Z,8.23
2022-12-08T02:12:52.001Z,8.98
2022-12-08T02:15:19.132Z,8.95
2022-12-08T02:18:07.599Z,8.65
2022-12-08T02:20:53.077Z,7.95
2022-12-08T02:23:24.092Z,9.60
2022-12-08T02:25:54.021Z,8.52
2022-12-08T02:29:02.171Z,8.55
2022-12-08T02:31:49.607Z,10.32
2022-12-08T02:34:28.376Z,8.60
2022-12-08T02:37:01.340Z,9.20
2022-12-08T02:39:51.597Z,8.95
2022-12-08T02:42:28.188Z,8.35
2022-12-08T02:45:02.304Z,9.40
2022-12-08T02:47:29.347Z,7.85
2022-12-08T02:49:56.470Z,9.02
2022-12-08T02:52:23.479Z,9.13
2022-12-08T02:54:58.042Z,7.82
2022-12-08T02:57:43.995Z,9.32
2022-12-08T03:00:18.600Z,8.25
2022-12-08T03:02:54.956Z,8.30
2022-12-08T03:05:38.482Z,8.20
2022-12-08T03:08:38.028Z,8.27
2022-12-08T03:11:31.292Z,8.75
2022-12-08T03:13:59.885Z,8.98
2022-12-08T03:16:27.853Z,8.65
2022-12-08T03:19:09.747Z,9.68
2022-12-08T03:21:36.951Z,9.35
2022-12-08T03:24:06.007Z,9.05
2022-12-08T03:26:49.212Z,9.45
2022-12-08T03:29:16.261Z,9.13
2022-12-08T03:31:49.977Z,9.70
2022-12-08T03:36:44.842Z,9.65
2022-12-08T03:39:11.855Z,8.90
2022-12-08T03:41:38.792Z,8.88
2022-12-08T03:44:05.946Z,9.40
2022-12-08T03:46:34.001Z,9.15
2022-12-08T03:49:01.305Z,8.90
2022-12-08T03:51:28.486Z,8.57
2022-12-08T03:53:55.659Z,10.10
2022-12-08T03:56:28.261Z,8.43
2022-12-08T03:58:55.620Z,8.25
2022-12-08T04:01:22.882Z,10.15
2022-12-08T04:03:50.080Z,10.00
2022-12-08T04:06:17.229Z,8.93
2022-12-08T04:08:44.276Z,10.02
2022-12-08T04:11:11.271Z,8.65
2022-12-08T04:13:39.128Z,9.73
2022-12-08T04:16:06.525Z,8.93
2022-12-08T04:18:34.102Z,10.90
2022-12-08T04:21:01.292Z,9.00
2022-12-08T04:23:28.338Z,10.10
2022-12-08T04:25:55.302Z,9.10
2022-12-08T04:28:23.525Z,9.93
2022-12-08T04:30:50.679Z,8.85
2022-12-08T04:33:17.655Z,9.95
2022-12-08T04:35:44.804Z,9.18
2022-12-08T04:38:11.832Z,9.60
2022-12-08T04:40:38.896Z,9.77
2022-12-08T04:43:05.985Z,9.55
2022-12-08T04:45:33.069Z,9.88
2022-12-08T04:48:01.853Z,9.93
2022-12-08T04:50:28.897Z,10.70
2022-12-08T04:52:57.131Z,11.55
2022-12-08T04:55:24.121Z,10.13
2022-12-08T04:57:51.260Z,9.02
2022-12-08T05:00:18.573Z,9.32
2022-12-08T05:02:45.655Z,9.75
2022-12-08T05:05:12.736Z,9.32
2022-12-08T05:07:39.816Z,10.23
2022-12-08T05:10:07.603Z,10.00
2022-12-08T05:12:34.679Z,10.07
2022-12-08T05:15:01.695Z,10.43
2022-12-08T05:17:28.770Z,11.68
2022-12-08T05:19:55.850Z,10.10
2022-12-08T05:22:22.937Z,10.45
2022-12-08T05:24:51.184Z,10.32
2022-12-08T05:27:18.249Z,10.60
2022-12-08T05:29:45.322Z,10.50
2022-12-08T05:32:12.337Z,9.68
2022-12-08T05:34:39.395Z,10.18
2022-12-08T05:37:06.479Z,10.70
2022-12-08T05:39:33.559Z,10.60
2022-12-08T05:42:00.745Z,10.27
2022-12-08T05:44:28.075Z,10.52
2022-12-08T05:46:55.109Z,10.88
2022-12-08T05:49:22.257Z,10.25
2022-12-08T05:51:49.316Z,10.27
2022-12-08T05:54:16.427Z,10.75
2022-12-08T05:56:43.714Z,10.57
2022-12-08T05:59:10.709Z,9.93
2022-12-08T06:01:37.882Z,10.63
2022-12-08T06:04:05.290Z,9.88
2022-12-08T06:06:34.345Z,11.40
2022-12-08T06:09:03.748Z,10.68
2022-12-08T06:11:31.187Z,10.10
2022-12-08T06:13:59.038Z,10.90
2022-12-08T06:16:26.549Z,9.85
2022-12-08T06:18:53.718Z,8.68
2022-12-08T06:21:20.757Z,9.63
2022-12-08T06:23:49.845Z,11.55
2022-12-08T06:26:17.381Z,9.70
2022-12-08T06:28:44.611Z,10.00
2022-12-08T06:31:19.101Z,10.15
2022-12-08T06:33:46.402Z,9.95
2022-12-08T06:36:14.328Z,10.20
2022-12-08T06:38:43.560Z,9.75
2022-12-08T06:41:11.182Z,9.55
2022-12-08T06:43:38.380Z,10.63
2022-12-08T06:46:06.470Z,9.05
2022-12-08T06:48:33.457Z,9.55
2022-12-08T06:51:08.377Z,9.70
2022-12-08T06:53:35.397Z,10.27
2022-12-08T06:56:02.464Z,9.98
2022-12-08T06:58:29.626Z,9.18
2022-12-08T07:00:56.703Z,10.07
2022-12-08T07:03:23.759Z,10.57
2022-12-08T07:05:50.745Z,10.55
2022-12-08T07:08:17.776Z,9.48
2022-12-08T07:10:44.797Z,9.13
2022-12-08T07:13:11.770Z,9.70
2022-12-08T07:15:38.685Z,9.70
2022-12-08T07:18:07.555Z,9.75
2022-12-08T07:20:34.565Z,9.70
2022-12-08T07:23:01.536Z,10.95
2022-12-08T07:25:28.621Z,9.68
2022-12-08T07:27:55.615Z,10.45
2022-12-08T07:30:22.630Z,9.68
2022-12-08T07:32:50.284Z,9.80
2022-12-08T07:35:17.559Z,9.50
2022-12-08T07:37:44.582Z,9.90
2022-12-08T07:40:13.389Z,8.88
2022-12-08T07:42:40.565Z,9.77
2022-12-08T07:45:08.416Z,11.15
2022-12-08T07:47:35.628Z,9.90
2022-12-08T07:50:05.591Z,10.68
2022-12-08T07:52:35.280Z,9.82
2022-12-08T07:55:02.534Z,9.10
2022-12-08T07:57:29.766Z,8.20
2022-12-08T08:00:01.590Z,10.70
2022-12-08T08:02:38.702Z,9.52
2022-12-08T08:05:06.564Z,10.13
2022-12-08T08:07:33.615Z,9.23
2022-12-08T08:10:00.871Z,9.77
2022-12-08T08:12:32.387Z,9.57
2022-12-08T08:15:03.138Z,10.15
2022-12-08T08:17:37.907Z,10.60
2022-12-08T08:20:07.214Z,10.27
2022-12-08T08:22:36.842Z,8.98
2022-12-08T08:25:05.252Z,9.35
2022-12-08T08:27:32.250Z,9.52
2022-12-08T08:29:59.219Z,8.63
2022-12-08T08:32:26.403Z,8.80
2022-12-08T08:34:53.375Z,9.40
2022-12-08T08:37:20.551Z,9.93
2022-12-08T08:39:49.507Z,10.13
2022-12-08T08:42:16.451Z,9.48
2022-12-08T08:44:43.470Z,8.82
2022-12-08T08:47:10.542Z,9.82
2022-12-08T08:49:37.485Z,8.88
2022-12-08T08:52:05.061Z,9.27
2022-12-08T08:54:32.230Z,9.52
2022-12-08T08:57:00.041Z,9.68
2022-12-08T08:59:27.320Z,9.25
2022-12-08T09:01:54.928Z,9.73
2022-12-08T09:04:22.836Z,9.05
2022-12-08T09:06:50.054Z,9.98
2022-12-08T09:09:17.244Z,9.05
2022-12-08T09:11:44.299Z,8.95
2022-12-08T09:14:17.296Z,9.48
2022-12-08T09:16:44.391Z,9.27
2022-12-08T09:19:11.407Z,9.80
2022-12-08T09:21:39.103Z,9.52
2022-12-08T09:24:06.624Z,9.82
2022-12-08T09:26:33.664Z,10.35
2022-12-08T09:29:00.633Z,9.45
2022-12-08T09:31:27.980Z,10.70
2022-12-08T09:33:55.413Z,10.75
2022-12-08T09:36:22.518Z,11.00
2022-12-08T09:38:51.126Z,10.07
2022-12-08T09:41:40.639Z,10.55
2022-12-08T09:44:40.793Z,10.30
2022-12-08T09:47:22.198Z,11.05
2022-12-08T09:50:18.121Z,10.20
2022-12-08T09:53:03.980Z,11.35
2022-12-08T09:56:05.612Z,11.23
2022-12-08T09:58:54.728Z,9.18
2022-12-08T10:01:22.689Z,10.27
2022-12-08T10:03:49.872Z,9.57
2022-12-08T10:06:25.184Z,9.82
2022-12-08T10:09:15.244Z,9.52
2022-12-08T10:12:08.623Z,9.25
2022-12-08T10:14:39.094Z,10.23
2022-12-08T10:17:14.545Z,10.02
2022-12-08T10:19:41.910Z,9.50
2022-12-08T10:22:21.788Z,9.50
2022-12-08T10:24:55.901Z,10.93
2022-12-08T10:27:23.051Z,9.63
2022-12-08T10:29:50.101Z,10.43
2022-12-08T10:32:24.320Z,10.50
2022-12-08T10:35:03.311Z,10.20
2022-12-08T10:37:30.414Z,11.48
2022-12-08T10:40:14.872Z,11.25
2022-12-08T10:42:49.431Z,10.30
2022-12-08T10:45:28.249Z,10.43
2022-12-08T10:47:59.564Z,12.30
2022-12-08T10:50:30.866Z,10.55
2022-12-08T10:53:07.940Z,10.85
2022-12-08T10:55:49.420Z,12.02
2022-12-08T10:58:34.086Z,12.23
2022-12-08T11:01:11.430Z,11.13
2022-12-08T11:04:02.236Z,11.63
2022-12-08T11:06:29.415Z,10.98
2022-12-08T11:08:58.385Z,11.30
2022-12-08T11:11:51.410Z,10.98
2022-12-08T11:14:30.228Z,10.75
2022-12-08T11:17:08.330Z,10.40
2022-12-08T11:19:39.496Z,10.55
2022-12-08T11:22:35.110Z,9.05
2022-12-08T11:25:08.119Z,9.07
2022-12-08T11:27:39.559Z,9.80
2022-12-08T11:30:17.340Z,9.55
2022-12-08T11:32:45.836Z,10.70
2022-12-08T11:35:25.862Z,8.88
2022-12-08T11:38:21.508Z,10.43
2022-12-08T11:43:34.787Z,9.77
2022-12-08T11:46:11.476Z,10.07
2022-12-08T11:48:41.483Z,11.40
2022-12-08T11:51:14.696Z,11.88
2022-12-08T11:54:11.847Z,11.23
2022-12-08T11:56:39.617Z,12.10
2022-12-08T11:59:27.818Z,12.10
2022-12-08T12:01:55.080Z,19.17
2022-12-08T12:04:41.130Z,12.40
2022-12-08T12:07:46.120Z,11.07
2022-12-08T12:10:35.531Z,10.32
2022-12-08T12:13:24.473Z,10.80
2022-12-08T12:16:24.318Z,12.07
2022-12-08T12:19:02.689Z,10.65
2022-12-08T12:21:32.676Z,10.57
2022-12-08T12:24:05.403Z,10.70
2022-12-08T12:26:36.467Z,10.20
2022-12-08T12:29:11.555Z,9.40
2022-12-08T12:31:43.586Z,9.05
2022-12-08T12:34:25.253Z,11.98
2022-12-08T12:36:57.687Z,12.07
2022-12-08T12:39:30.566Z,9.65
2022-12-08T12:42:02.131Z,9.05
2022-12-08T12:44:29.221Z,9.25
2022-12-08T12:46:58.692Z,9.50
2022-12-08T12:49:43.917Z,9.27
2022-12-08T12:52:18.966Z,8.40
2022-12-08T12:55:08.931Z,9.20
2022-12-08T12:57:37.818Z,8.52
2022-12-08T13:00:05.263Z,8.35
2022-12-08T13:02:46.084Z,8.20
2022-12-08T13:05:31.980Z,8.45
2022-12-08T13:08:16.083Z,7.97
2022-12-08T13:11:09.825Z,8.95
2022-12-08T13:13:38.177Z,8.75
2022-12-08T13:16:18.539Z,8.02
2022-12-08T13:18:50.711Z,8.00
2022-12-08T13:21:22.679Z,8.50
2022-12-08T13:24:10.673Z,8.20
2022-12-08T13:27:07.959Z,9.00
2022-12-08T13:29:35.852Z,8.02
2022-12-08T13:32:10.161Z,7.47
2022-12-08T13:34:41.728Z,7.10
2022-12-08T13:37:11.528Z,6.90
2022-12-08T13:39:55.466Z,8.05
2022-12-08T13:42:29.880Z,7.55
2022-12-08T13:45:27.845Z,6.97
2022-12-08T13:48:26.631Z,8.00
2022-12-08T13:57:04.012Z,4.15
2022-12-08T13:59:34.118Z,3.83
2022-12-08T14:02:17.241Z,4.10
2022-12-08T14:05:20.321Z,4.22
2022-12-08T14:07:50.437Z,4.40
2022-12-08T14:10:28.196Z,4.13
2022-12-08T14:13:03.360Z,3.50
2022-12-08T14:15:39.006Z,4.53
2022-12-08T14:18:29.036Z,3.65
2022-12-08T14:21:21.427Z,4.40
2022-12-08T14:23:49.519Z,3.65
2022-12-08T14:26:16.505Z,3.75
2022-12-08T14:28:45.224Z,3.63
2022-12-08T14:31:14.703Z,3.90
2022-12-08T14:33:42.012Z,4.45
2022-12-08T14:36:12.480Z,4.30
2022-12-08T14:38:39.556Z,5.47
2022-12-08T14:41:07.908Z,5.70
2022-12-08T14:43:37.980Z,5.90
2022-12-08T14:46:18.637Z,4.13
2022-12-08T14:48:45.875Z,4.68
2022-12-08T14:51:21.465Z,3.88
2022-12-08T14:54:13.416Z,3.95
2022-12-08T14:56:40.329Z,4.78
2022-12-08T14:59:19.954Z,4.30
2022-12-08T15:01:47.521Z,6.80
2022-12-08T15:04:17.175Z,5.60
2022-12-08T15:06:57.044Z,4.50
2022-12-08T15:09:32.209Z,6.00
2022-12-08T15:12:08.410Z,5.28
2022-12-08T15:14:42.392Z,4.90
2022-12-08T15:17:44.773Z,4.28
2022-12-08T15:20:41.141Z,4.95
2022-12-08T15:23:21.003Z,4.53
2022-12-08T15:25:48.742Z,5.40
2022-12-08T15:28:17.735Z,5.45
2022-12-08T15:30:44.930Z,5.15
2022-12-08T15:33:11.903Z,5.45
2022-12-08T15:35:40.942Z,4.07
2022-12-08T15:38:14.039Z,4.05
2022-12-08T15:40:41.053Z,3.93
2022-12-08T15:43:10.947Z,4.18
2022-12-08T15:45:37.898Z,3.80
2022-12-08T15:48:05.155Z,3.83
2022-12-08T15:50:32.137Z,4.32
2022-12-08T15:52:59.142Z,3.90
2022-12-08T15:55:26.081Z,4.35
2022-12-08T15:58:51.244Z,3.92
2022-12-08T16:00:52.382Z,4.03
2022-12-08T16:04:13.088Z,4.35
2022-12-08T16:07:12.475Z,3.90
2022-12-08T16:09:12.208Z,3.58
2022-12-08T16:12:10.132Z,3.95
2022-12-08T16:17:25.145Z,3.70
2022-12-08T16:19:52.490Z,4.30
2022-12-08T16:25:19.247Z,4.03
2022-12-08T16:28:01.332Z,4.53
2022-12-08T16:30:30.366Z,4.90
2022-12-08T16:32:57.457Z,4.50
2022-12-08T16:35:25.371Z,5.40
2022-12-08T16:37:55.468Z,4.18
2022-12-08T16:40:22.410Z,4.82
2022-12-08T16:42:50.300Z,5.22
2022-12-08T16:45:29.225Z,4.53
2022-12-08T16:47:58.076Z,5.60
2022-12-08T16:50:32.851Z,5.55
2022-12-08T16:53:03.599Z,4.88
2022-12-08T16:55:32.745Z,4.97
2022-12-08T16:57:59.949Z,5.25
2022-12-08T17:00:28.217Z,4.38
2022-12-08T17:02:55.448Z,5.05
2022-12-08T17:05:23.777Z,5.05
2022-12-08T17:07:52.714Z,5.00
2022-12-08T17:10:23.121Z,5.95
2022-12-08T17:12:50.342Z,5.82
2022-12-08T17:15:19.213Z,7.28
2022-12-08T17:17:46.208Z,8.07
2022-12-08T17:20:18.787Z,6.65
2022-12-08T17:22:45.986Z,7.47
2022-12-08T17:25:12.999Z,8.18
2022-12-08T17:27:42.492Z,7.75
2022-12-08T17:30:11.712Z,8.25
2022-12-08T17:32:38.931Z,7.30
2022-12-08T17:35:07.032Z,7.53
2022-12-08T17:37:34.562Z,8.68
2022-12-08T17:40:01.653Z,8.40
2022-12-08T17:42:28.729Z,9.13
2022-12-08T17:44:55.743Z,6.90
2022-12-08T17:47:23.020Z,6.82
2022-12-08T17:49:50.034Z,7.43
2022-12-08T17:52:17.056Z,7.53
2022-12-08T17:54:44.184Z,7.22
2022-12-08T17:57:11.166Z,7.35
2022-12-08T17:59:38.315Z,6.80
2022-12-08T18:02:05.521Z,6.43
2022-12-08T18:04:32.637Z,6.40
2022-12-08T18:07:01.334Z,9.93
2022-12-08T18:09:30.601Z,10.65
2022-12-08T18:11:57.682Z,11.93
2022-12-08T18:14:24.703Z,12.23
2022-12-08T18:16:51.862Z,12.02
2022-12-08T18:19:19.169Z,12.48
2022-12-08T18:21:46.111Z,10.85
2022-12-08T18:24:18.875Z,9.80
2022-12-08T18:26:46.080Z,9.25
2022-12-08T18:29:13.222Z,9.88
2022-12-08T18:31:40.274Z,9.60
2022-12-08T18:34:07.360Z,9.90
2022-12-08T18:36:34.863Z,11.43
2022-12-08T18:39:07.251Z,11.25
2022-12-08T18:41:37.546Z,9.15
2022-12-08T18:44:04.743Z,10.52
2022-12-08T18:46:31.828Z,8.95
2022-12-08T18:49:03.446Z,9.85
2022-12-08T18:51:30.603Z,9.27
2022-12-08T18:53:58.456Z,9.65
2022-12-08T18:56:27.096Z,9.93
2022-12-08T18:59:02.815Z,10.45
2022-12-08T19:01:32.978Z,11.85
2022-12-08T19:06:53.839Z,10.27
2022-12-08T19:09:22.713Z,10.93
2022-12-08T19:11:49.891Z,10.50
2022-12-08T19:14:18.400Z,10.25
2022-12-08T19:16:50.808Z,11.23
2022-12-08T19:19:18.104Z,11.63
2022-12-08T19:21:46.666Z,13.55
2022-12-08T19:24:13.916Z,12.63
2022-12-08T19:26:41.002Z,13.05
2022-12-08T19:29:08.015Z,14.90
2022-12-08T19:31:35.134Z,13.93
2022-12-08T19:34:02.518Z,13.70
2022-12-08T19:36:43.740Z,13.75
2022-12-08T19:39:34.746Z,13.15
2022-12-08T19:42:20.594Z,11.75
2022-12-08T19:44:55.255Z,13.30
2022-12-08T19:47:26.257Z,10.88
2022-12-08T19:49:55.119Z,12.90
2022-12-08T19:52:22.605Z,12.30
2022-12-08T19:54:49.695Z,12.70
2022-12-08T19:57:16.791Z,12.60
2022-12-08T19:59:45.249Z,13.45
2022-12-08T20:02:12.646Z,12.02
2022-12-08T20:04:39.914Z,12.55
2022-12-08T20:07:07.072Z,11.77
2022-12-08T20:09:34.102Z,11.07
2022-12-08T20:12:01.119Z,12.85
2022-12-08T20:14:28.172Z,11.77
2022-12-08T20:16:55.221Z,10.63
2022-12-08T20:19:22.475Z,12.60
2022-12-08T20:21:49.804Z,11.57
2022-12-08T20:24:17.504Z,12.00
2022-12-08T20:26:44.634Z,13.82
2022-12-08T20:29:12.179Z,13.85
2022-12-08T20:31:39.446Z,13.32
2022-12-08T20:34:06.720Z,12.02
2022-12-08T20:36:33.741Z,11.80
2022-12-08T20:39:00.906Z,12.85
2022-12-08T20:41:28.098Z,12.20
2022-12-08T20:43:55.168Z,11.43
2022-12-08T20:46:24.561Z,13.18
2022-12-08T20:48:51.872Z,12.73
2022-12-08T20:51:19.563Z,11.82
2022-12-08T20:53:47.630Z,11.32
2022-12-08T20:56:19.427Z,12.93
2022-12-08T20:58:48.608Z,14.63
2022-12-08T21:01:17.212Z,13.30
2022-12-08T21:03:45.294Z,13.85
2022-12-08T21:06:12.448Z,13.15
2022-12-08T21:08:39.823Z,15.70
2022-12-08T21:11:07.413Z,15.88
2022-12-08T21:13:34.656Z,15.75
2022-12-08T21:16:01.911Z,17.17
2022-12-08T21:18:31.257Z,16.33
2022-12-08T21:21:03.286Z,16.75
2022-12-08T21:23:30.459Z,16.08
2022-12-08T21:25:57.705Z,16.17
2022-12-08T21:28:24.724Z,18.30
2022-12-08T21:30:51.917Z,18.65
2022-12-08T21:33:19.712Z,16.85
2022-12-08T21:35:49.877Z,14.35
2022-12-08T21:38:17.126Z,14.18
2022-12-08T21:40:44.251Z,13.38
2022-12-08T21:43:12.139Z,13.00
2022-12-08T21:45:39.697Z,13.02
2022-12-08T21:48:11.413Z,20.65
2022-12-08T21:50:39.375Z,15.55
2022-12-08T21:53:06.769Z,13.77
2022-12-08T21:55:33.854Z,12.95
2022-12-08T21:58:02.328Z,16.48
2022-12-08T22:00:31.421Z,13.30
2022-12-08T22:02:59.839Z,13.23
2022-12-08T22:05:27.664Z,15.15
2022-12-08T22:07:54.681Z,14.50
2022-12-08T22:10:23.097Z,15.65
2022-12-08T22:12:50.425Z,14.40
2022-12-08T22:15:18.002Z,14.05
2022-12-08T22:17:47.657Z,15.27
2022-12-08T22:20:15.132Z,14.98
2022-12-08T22:22:42.713Z,13.15
2022-12-08T22:25:12.146Z,13.38
2022-12-08T22:27:41.014Z,13.00
2022-12-08T22:30:08.924Z,15.23
2022-12-08T22:32:36.590Z,13.95
2022-12-08T22:35:06.572Z,15.10
2022-12-08T22:37:34.233Z,15.43
2022-12-08T22:40:02.035Z,14.45
2022-12-08T22:42:29.599Z,13.70
2022-12-08T22:44:57.743Z,15.48
2022-12-08T22:47:24.714Z,13.20
2022-12-08T22:49:51.860Z,12.57
2022-12-08T22:52:18.965Z,13.13
2022-12-08T22:54:45.980Z,13.35
2022-12-08T22:57:13.204Z,13.05
2022-12-08T22:59:43.367Z,14.25
2022-12-08T23:02:21.907Z,12.82
2022-12-08T23:04:52.735Z,13.35
2022-12-08T23:07:21.564Z,13.75
2022-12-08T23:09:49.718Z,13.18
2022-12-08T23:12:16.862Z,13.90
2022-12-08T23:14:44.120Z,13.82
2022-12-08T23:17:11.306Z,12.20
2022-12-08T23:19:39.145Z,12.93
2022-12-08T23:22:06.311Z,12.18
2022-12-08T23:24:33.525Z,13.55
2022-12-08T23:27:00.722Z,13.25
2022-12-08T23:29:27.930Z,11.38
2022-12-08T23:31:55.489Z,12.27
2022-12-08T23:34:22.681Z,12.18
2022-12-08T23:36:49.867Z,12.18
2022-12-08T23:39:17.215Z,12.43
2022-12-08T23:41:44.437Z,12.07
2022-12-08T23:44:12.399Z,12.23
2022-12-08T23:46:39.814Z,11.77
2022-12-08T23:49:10.047Z,12.07
2022-12-08T23:51:37.219Z,11.45
2022-12-08T23:54:07.970Z,11.05
2022-12-08T23:56:35.564Z,11.30
2022-12-08T23:59:05.672Z,11.57
